createdAt,value
2019-04-06T00:01:47.721Z,9.52
2019-04-06T00:04:16.195Z,9.56
2019-04-06T00:06:44.668Z,9.58
2019-04-06T00:09:13.181Z,9.60
2019-04-06T00:11:41.656Z,9.64
2019-04-06T00:14:10.198Z,9.67
2019-04-06T00:16:38.726Z,9.70
2019-04-06T00:19:07.229Z,9.72
2019-04-06T00:21:35.678Z,9.77
2019-04-06T00:24:04.209Z,9.80
2019-04-06T00:26:32.680Z,9.85
2019-04-06T00:29:02.291Z,9.88
2019-04-06T00:31:40.941Z,9.92
2019-04-06T00:34:09.412Z,9.94
2019-04-06T00:36:37.883Z,9.96
2019-04-06T00:39:06.848Z,9.98
2019-04-06T00:41:35.323Z,9.94
2019-04-06T00:44:03.859Z,9.91
2019-04-06T00:46:32.358Z,9.85
2019-04-06T00:49:00.837Z,9.80
2019-04-06T00:51:29.296Z,9.74
2019-04-06T00:53:57.815Z,9.69
2019-04-06T00:56:26.285Z,9.63
2019-04-06T00:58:54.766Z,9.59
2019-04-06T01:01:23.268Z,9.55
2019-04-06T01:03:51.744Z,9.50
2019-04-06T01:06:20.286Z,9.49
2019-04-06T01:08:48.824Z,9.50
2019-04-06T01:11:17.361Z,9.51
2019-04-06T01:13:45.828Z,9.49
2019-04-06T01:16:14.805Z,9.47
2019-04-06T01:18:43.288Z,9.46
2019-04-06T01:21:11.775Z,9.46
2019-04-06T01:23:40.299Z,9.46
2019-04-06T01:26:08.836Z,9.47
2019-04-06T01:28:37.322Z,9.49
2019-04-06T01:31:23.824Z,9.52
2019-04-06T01:33:52.610Z,9.56
2019-04-06T01:36:21.086Z,9.59
2019-04-06T01:38:49.581Z,9.60
2019-04-06T01:41:18.045Z,9.61
2019-04-06T01:43:46.506Z,9.62
2019-04-06T01:46:15.015Z,9.64
2019-04-06T01:48:43.491Z,9.65
2019-04-06T01:51:12.025Z,9.67
2019-04-06T01:53:40.604Z,9.69
2019-04-06T01:56:18.060Z,9.71
2019-04-06T01:58:39.258Z,9.74
2019-04-06T02:01:18.371Z,9.75
2019-04-06T02:03:46.883Z,9.77
2019-04-06T02:06:15.364Z,9.78
2019-04-06T02:08:43.867Z,9.76
2019-04-06T02:11:12.334Z,9.76
2019-04-06T02:13:40.794Z,9.73
2019-04-06T02:16:09.759Z,9.72
2019-04-06T02:18:38.224Z,9.72
2019-04-06T02:21:06.828Z,9.70
2019-04-06T02:23:35.280Z,9.70
2019-04-06T02:26:03.774Z,9.69
2019-04-06T02:28:32.220Z,9.68
2019-04-06T02:31:08.021Z,9.70
2019-04-06T02:33:54.699Z,9.69
2019-04-06T02:36:37.111Z,9.66
2019-04-06T02:39:08.417Z,9.64
2019-04-06T02:41:47.650Z,9.64
2019-04-06T02:44:16.125Z,9.61
2019-04-06T02:46:44.600Z,9.58
2019-04-06T02:49:13.094Z,9.57
2019-04-06T02:51:41.571Z,9.55
2019-04-06T02:54:10.031Z,9.53
2019-04-06T02:56:45.575Z,9.51
2019-04-06T02:59:08.727Z,9.49
2019-04-06T03:01:37.259Z,9.47
2019-04-06T03:04:05.813Z,9.46
2019-04-06T03:06:34.303Z,9.46
2019-04-06T03:09:02.839Z,9.45
2019-04-06T03:11:31.318Z,9.44
2019-04-06T03:14:00.016Z,9.44
2019-04-06T03:16:28.417Z,9.43
2019-04-06T03:18:57.247Z,9.43
2019-04-06T03:21:25.701Z,9.43
2019-04-06T03:23:54.172Z,9.43
2019-04-06T03:26:22.751Z,9.44
2019-04-06T03:28:51.227Z,9.44
2019-04-06T03:31:24.214Z,9.42
2019-04-06T03:33:49.944Z,9.39
2019-04-06T03:36:18.439Z,9.36
2019-04-06T03:38:47.223Z,9.33
2019-04-06T03:41:15.719Z,9.29
2019-04-06T03:43:44.175Z,9.26
2019-04-06T03:46:12.642Z,9.23
2019-04-06T03:48:41.136Z,9.20
2019-04-06T03:51:09.908Z,9.16
2019-04-06T03:53:38.445Z,9.13
2019-04-06T03:56:06.951Z,9.08
2019-04-06T03:58:35.486Z,9.06
2019-04-06T04:01:04.019Z,9.00
2019-04-06T04:03:32.536Z,8.95
2019-04-06T04:06:01.006Z,8.91
2019-04-06T04:08:29.463Z,8.85
2019-04-06T04:10:57.956Z,8.81
2019-04-06T04:13:26.519Z,8.77
2019-04-06T04:15:57.147Z,8.72
2019-04-06T04:18:25.242Z,8.71
2019-04-06T04:20:53.700Z,8.70
2019-04-06T04:23:22.195Z,8.69
2019-04-06T04:25:50.679Z,8.68
2019-04-06T04:28:19.142Z,8.68
2019-04-06T04:30:47.606Z,8.67
2019-04-06T04:33:16.421Z,8.67
2019-04-06T04:35:44.950Z,8.68
2019-04-06T04:38:13.427Z,8.70
2019-04-06T04:40:42.041Z,8.74
2019-04-06T04:43:10.505Z,8.77
2019-04-06T04:45:38.957Z,8.79
2019-04-06T04:48:07.464Z,8.81
2019-04-06T04:50:35.925Z,8.84
2019-04-06T04:53:04.397Z,8.86
2019-04-06T04:55:32.973Z,8.91
2019-04-06T04:58:01.436Z,8.93
2019-04-06T05:00:30.041Z,8.96
2019-04-06T05:02:58.470Z,8.99
2019-04-06T05:05:27.000Z,9.00
2019-04-06T05:07:55.467Z,9.03
2019-04-06T05:10:23.984Z,9.05
2019-04-06T05:12:52.444Z,9.09
2019-04-06T05:15:33.231Z,9.13
2019-04-06T05:18:01.842Z,9.16
2019-04-06T05:20:30.299Z,9.19
2019-04-06T05:22:58.800Z,9.21
2019-04-06T05:25:27.270Z,9.24
2019-04-06T05:27:55.734Z,9.25
2019-04-06T05:30:24.217Z,9.27
2019-04-06T05:32:52.679Z,9.31
2019-04-06T05:35:21.152Z,9.32
2019-04-06T05:37:49.640Z,9.34
2019-04-06T05:40:18.099Z,9.36
2019-04-06T05:42:46.791Z,9.37
2019-04-06T05:45:15.324Z,9.39
2019-04-06T05:47:43.771Z,9.40
2019-04-06T05:50:12.293Z,9.43
2019-04-06T05:52:40.872Z,9.46
2019-04-06T05:55:09.502Z,9.49
2019-04-06T05:57:38.105Z,9.52
2019-04-06T06:00:09.851Z,9.57
2019-04-06T06:02:41.323Z,9.62
2019-04-06T06:05:08.582Z,9.67
2019-04-06T06:07:38.674Z,9.74
2019-04-06T06:10:07.899Z,9.81
2019-04-06T06:12:36.362Z,9.88
2019-04-06T06:15:06.586Z,9.99
2019-04-06T06:17:35.047Z,10.07
2019-04-06T06:20:04.845Z,10.15
2019-04-06T06:22:33.422Z,10.22
2019-04-06T06:25:01.887Z,10.27
2019-04-06T06:27:30.438Z,10.33
2019-04-06T06:29:58.934Z,10.36
2019-04-06T06:32:27.394Z,10.39
2019-04-06T06:34:57.516Z,10.41
2019-04-06T06:37:26.212Z,10.41
2019-04-06T06:39:54.684Z,10.42
2019-04-06T06:42:23.232Z,10.45
2019-04-06T06:44:52.925Z,10.50
2019-04-06T06:47:21.470Z,10.58
2019-04-06T06:49:50.083Z,10.71
2019-04-06T06:52:18.549Z,10.83
2019-04-06T06:54:47.070Z,10.99
2019-04-06T06:57:18.318Z,11.15
2019-04-06T06:59:46.914Z,11.30
2019-04-06T07:02:15.377Z,11.45
2019-04-06T07:04:43.862Z,11.56
2019-04-06T07:07:13.591Z,11.64
2019-04-06T07:09:43.708Z,11.70
2019-04-06T07:12:12.739Z,11.77
2019-04-06T07:14:41.229Z,11.84
2019-04-06T07:17:09.695Z,11.93
2019-04-06T07:19:38.350Z,12.02
2019-04-06T07:22:06.836Z,12.11
2019-04-06T07:24:35.284Z,12.23
2019-04-06T07:27:03.760Z,12.36
2019-04-06T07:29:32.284Z,12.53
2019-04-06T07:32:00.829Z,12.71
2019-04-06T07:34:29.305Z,12.92
2019-04-06T07:36:57.812Z,13.12
2019-04-06T07:39:26.265Z,13.33
2019-04-06T07:41:54.741Z,13.52
2019-04-06T07:44:23.386Z,13.71
2019-04-06T07:46:51.932Z,13.89
2019-04-06T07:49:20.410Z,14.05
2019-04-06T07:51:49.100Z,14.15
2019-04-06T07:54:17.562Z,14.24
2019-04-06T07:56:46.044Z,14.32
2019-04-06T07:59:14.759Z,14.38
2019-04-06T08:01:43.253Z,14.43
2019-04-06T08:04:11.710Z,14.47
2019-04-06T08:06:40.249Z,14.51
2019-04-06T08:09:08.930Z,14.53
2019-04-06T08:11:37.412Z,14.57
2019-04-06T08:14:05.918Z,14.66
2019-04-06T08:16:34.620Z,14.74
2019-04-06T08:19:03.363Z,14.80
2019-04-06T08:21:31.801Z,14.88
2019-04-06T08:24:00.264Z,14.95
2019-04-06T08:26:28.724Z,15.02
2019-04-06T08:29:01.968Z,15.09
2019-04-06T08:31:27.392Z,15.17
2019-04-06T08:33:55.860Z,15.24
2019-04-06T08:36:24.385Z,15.33
2019-04-06T08:38:52.855Z,15.41
2019-04-06T08:41:21.339Z,15.51
2019-04-06T08:43:49.837Z,15.60
2019-04-06T08:46:18.431Z,15.70
2019-04-06T08:48:46.954Z,15.80
2019-04-06T08:51:15.517Z,15.91
2019-04-06T08:53:44.118Z,15.99
2019-04-06T08:56:12.548Z,16.13
2019-04-06T08:58:41.054Z,16.26
2019-04-06T09:01:09.509Z,16.38
2019-04-06T09:03:38.105Z,16.50
2019-04-06T09:06:06.811Z,16.60
2019-04-06T09:08:35.303Z,16.70
2019-04-06T09:11:03.955Z,16.81
2019-04-06T09:13:32.417Z,16.92
2019-04-06T09:16:02.591Z,17.04
2019-04-06T09:18:31.085Z,17.17
2019-04-06T09:20:59.577Z,17.26
2019-04-06T09:23:28.046Z,17.35
2019-04-06T09:25:56.523Z,17.44
2019-04-06T09:28:25.377Z,17.51
2019-04-06T09:30:54.214Z,17.62
2019-04-06T09:33:22.909Z,17.69
2019-04-06T09:35:51.424Z,17.79
2019-04-06T09:38:19.846Z,17.88
2019-04-06T09:40:49.399Z,17.97
2019-04-06T09:43:18.114Z,18.05
2019-04-06T09:46:03.504Z,18.15
2019-04-06T09:48:36.600Z,18.25
2019-04-06T09:51:22.979Z,18.33
2019-04-06T09:54:11.490Z,18.44
2019-04-06T09:56:41.613Z,18.56
2019-04-06T09:59:17.903Z,18.67
2019-04-06T10:01:59.644Z,18.77
2019-04-06T10:04:45.741Z,18.88
2019-04-06T10:07:32.433Z,18.97
2019-04-06T10:10:17.586Z,19.02
2019-04-06T10:12:47.722Z,19.08
2019-04-06T10:15:34.162Z,19.12
2019-04-06T10:18:04.285Z,19.18
2019-04-06T10:20:46.345Z,19.20
2019-04-06T10:23:16.719Z,19.27
2019-04-06T10:25:50.072Z,19.30
2019-04-06T10:28:23.425Z,19.37
2019-04-06T10:31:09.746Z,19.42
2019-04-06T10:33:48.858Z,19.49
2019-04-06T10:36:24.893Z,19.55
2019-04-06T10:39:06.781Z,19.62
2019-04-06T10:41:36.883Z,19.67
2019-04-06T10:44:23.444Z,19.74
2019-04-06T10:46:59.310Z,19.79
2019-04-06T10:49:44.470Z,19.82
2019-04-06T10:52:32.048Z,19.89
2019-04-06T10:55:10.820Z,19.96
2019-04-06T10:57:44.056Z,20.01
2019-04-06T11:00:14.332Z,20.04
2019-04-06T11:02:53.298Z,20.08
2019-04-06T11:05:23.404Z,20.14
2019-04-06T11:07:56.284Z,20.18
2019-04-06T11:10:29.266Z,20.24
2019-04-06T11:13:11.085Z,20.29
2019-04-06T11:15:46.889Z,20.35
2019-04-06T11:18:19.699Z,20.37
2019-04-06T11:20:49.816Z,20.39
2019-04-06T11:23:31.567Z,20.41
2019-04-06T11:26:17.800Z,20.43
2019-04-06T11:28:59.803Z,20.45
2019-04-06T11:31:46.048Z,20.49
2019-04-06T11:34:32.189Z,20.54
2019-04-06T11:37:18.724Z,20.59
2019-04-06T11:40:06.795Z,20.64
2019-04-06T11:42:52.252Z,20.67
2019-04-06T11:45:38.834Z,20.74
2019-04-06T11:48:11.924Z,20.79
2019-04-06T11:50:44.988Z,20.84
2019-04-06T11:53:21.536Z,20.88
2019-04-06T11:55:52.330Z,20.91
2019-04-06T11:58:34.696Z,20.94
2019-04-06T12:01:13.401Z,21.00
2019-04-06T12:03:43.508Z,21.05
2019-04-06T12:06:14.381Z,21.08
2019-04-06T12:08:44.486Z,21.13
2019-04-06T12:11:17.351Z,21.18
2019-04-06T12:13:56.490Z,21.22
2019-04-06T12:16:35.721Z,21.28
2019-04-06T12:19:08.604Z,21.35
2019-04-06T12:21:55.072Z,21.42
2019-04-06T12:24:40.279Z,21.47
2019-04-06T12:27:10.570Z,21.54
2019-04-06T12:29:40.675Z,21.59
2019-04-06T12:32:16.550Z,21.63
2019-04-06T12:34:49.318Z,21.68
2019-04-06T12:37:28.309Z,21.72
2019-04-06T12:40:16.476Z,21.76
2019-04-06T12:42:58.583Z,21.79
2019-04-06T12:45:44.999Z,21.81
2019-04-06T12:48:15.165Z,21.83
2019-04-06T12:50:45.212Z,21.86
2019-04-06T12:53:21.091Z,21.89
2019-04-06T12:56:07.914Z,21.90
2019-04-06T12:58:38.142Z,21.93
2019-04-06T13:01:21.087Z,21.95
2019-04-06T13:03:57.198Z,21.96
2019-04-06T13:06:44.172Z,21.97
2019-04-06T13:09:17.030Z,21.96
2019-04-06T13:11:53.142Z,21.92
2019-04-06T13:14:23.259Z,21.91
2019-04-06T13:16:56.362Z,21.91
2019-04-06T13:19:26.466Z,21.91
2019-04-06T13:21:56.607Z,21.90
2019-04-06T13:24:26.713Z,21.91
2019-04-06T13:27:02.808Z,21.92
2019-04-06T13:29:38.655Z,21.93
2019-04-06T13:32:25.315Z,21.98
2019-04-06T13:34:55.420Z,22.00
2019-04-06T13:37:29.034Z,21.98
2019-04-06T13:39:59.170Z,21.97
2019-04-06T13:42:29.281Z,21.96
2019-04-06T13:45:11.273Z,21.96
2019-04-06T13:47:44.070Z,21.95
2019-04-06T13:50:30.753Z,21.96
2019-04-06T13:53:01.632Z,21.97
2019-04-06T13:55:43.667Z,21.95
2019-04-06T13:58:16.962Z,21.95
2019-04-06T14:01:14.777Z,21.95
2019-04-06T14:03:43.701Z,21.96
2019-04-06T14:06:17.552Z,21.94
2019-04-06T14:08:53.515Z,21.94
2019-04-06T14:11:32.552Z,21.95
2019-04-06T14:14:03.117Z,21.95
2019-04-06T14:16:35.643Z,21.95
2019-04-06T14:19:21.719Z,21.93
2019-04-06T14:21:51.846Z,21.95
2019-04-06T14:24:26.336Z,21.94
2019-04-06T14:27:02.270Z,21.95
2019-04-06T14:29:35.385Z,21.96
2019-04-06T14:32:08.300Z,21.95
2019-04-06T14:34:56.560Z,21.94
2019-04-06T14:37:29.415Z,21.93
2019-04-06T14:40:08.549Z,21.93
2019-04-06T14:42:54.786Z,21.90
2019-04-06T14:45:30.539Z,21.87
2019-04-06T14:48:03.838Z,21.86
2019-04-06T14:50:34.199Z,21.85
2019-04-06T14:53:04.716Z,21.86
2019-04-06T14:55:50.064Z,21.85
2019-04-06T14:58:35.398Z,21.84
2019-04-06T15:01:17.755Z,21.82
2019-04-06T15:03:47.968Z,21.79
2019-04-06T15:06:18.119Z,21.79
2019-04-06T15:09:04.584Z,21.77
2019-04-06T15:11:34.939Z,21.78
2019-04-06T15:14:05.055Z,21.79
2019-04-06T15:16:44.605Z,21.76
2019-04-06T15:19:20.438Z,21.75
2019-04-06T15:21:53.107Z,21.73
2019-04-06T15:24:26.310Z,21.72
2019-04-06T15:27:02.332Z,21.72
2019-04-06T15:29:32.406Z,21.71
2019-04-06T15:32:02.514Z,21.72
2019-04-06T15:34:48.959Z,21.71
2019-04-06T15:37:21.491Z,21.72
2019-04-06T15:40:07.862Z,21.70
2019-04-06T15:42:37.973Z,21.67
2019-04-06T15:45:10.959Z,21.64
2019-04-06T15:47:41.091Z,21.63
2019-04-06T15:50:11.257Z,21.61
2019-04-06T15:52:50.457Z,21.59
2019-04-06T15:55:35.553Z,21.56
2019-04-06T15:58:17.290Z,21.53
2019-04-06T16:00:47.401Z,21.51
2019-04-06T16:03:26.938Z,21.47
2019-04-06T16:05:59.722Z,21.43
2019-04-06T16:08:32.587Z,21.40
2019-04-06T16:11:17.932Z,21.36
2019-04-06T16:13:50.484Z,21.32
2019-04-06T16:16:20.586Z,21.29
2019-04-06T16:19:00.028Z,21.25
2019-04-06T16:21:48.465Z,21.23
2019-04-06T16:24:28.466Z,21.20
2019-04-06T16:27:09.528Z,21.13
2019-04-06T16:29:39.865Z,21.07
2019-04-06T16:32:12.409Z,21.00
2019-04-06T16:34:41.829Z,20.93
2019-04-06T16:37:15.059Z,20.85
2019-04-06T16:39:47.930Z,20.79
2019-04-06T16:42:18.041Z,20.74
2019-04-06T16:44:51.112Z,20.68
2019-04-06T16:47:21.475Z,20.63
2019-04-06T16:49:51.604Z,20.56
2019-04-06T16:52:36.763Z,20.53
2019-04-06T16:55:22.636Z,20.47
2019-04-06T16:58:08.666Z,20.41
2019-04-06T17:00:54.375Z,20.33
2019-04-06T17:03:24.648Z,20.24
2019-04-06T17:06:06.760Z,20.16
2019-04-06T17:08:53.176Z,20.06
2019-04-06T17:11:38.360Z,19.95
2019-04-06T17:14:24.797Z,19.81
2019-04-06T17:16:54.868Z,19.70
2019-04-06T17:19:27.914Z,19.59
2019-04-06T17:21:58.085Z,19.51
2019-04-06T17:24:43.512Z,19.40
2019-04-06T17:27:13.819Z,19.29
2019-04-06T17:29:53.325Z,19.17
2019-04-06T17:32:34.417Z,19.05
2019-04-06T17:35:04.246Z,18.92
2019-04-06T17:37:42.906Z,18.80
2019-04-06T17:40:13.017Z,18.67
2019-04-06T17:42:49.008Z,18.57
2019-04-06T17:45:34.662Z,18.48
2019-04-06T17:48:21.313Z,18.37
2019-04-06T17:50:54.543Z,18.26
2019-04-06T17:53:34.275Z,18.19
2019-04-06T17:56:16.890Z,18.10
2019-04-06T17:59:03.032Z,18.01
2019-04-06T18:01:36.338Z,17.90
2019-04-06T18:04:18.535Z,17.85
2019-04-06T18:06:48.609Z,17.85
2019-04-06T18:09:21.775Z,17.83
2019-04-06T18:11:55.175Z,17.74
2019-04-06T18:14:24.047Z,17.59
2019-04-06T18:16:52.791Z,17.41
2019-04-06T18:19:21.547Z,17.23
2019-04-06T18:21:50.266Z,17.06
2019-04-06T18:24:19.483Z,16.90
2019-04-06T18:26:48.033Z,16.75
2019-04-06T18:29:16.501Z,16.63
2019-04-06T18:31:49.312Z,16.53
2019-04-06T18:34:18.340Z,16.43
2019-04-06T18:36:48.473Z,16.36
2019-04-06T18:39:18.599Z,16.27
2019-04-06T18:41:47.123Z,16.17
2019-04-06T18:44:15.662Z,16.07
2019-04-06T18:46:44.122Z,15.98
2019-04-06T18:49:12.615Z,15.88
2019-04-06T18:51:41.087Z,15.77
2019-04-06T18:54:09.943Z,15.67
2019-04-06T18:56:38.414Z,15.56
2019-04-06T18:59:07.869Z,15.45
2019-04-06T19:01:36.441Z,15.36
2019-04-06T19:04:04.958Z,15.27
2019-04-06T19:06:33.798Z,15.18
2019-04-06T19:09:02.337Z,15.09
2019-04-06T19:11:31.318Z,15.03
2019-04-06T19:14:00.234Z,14.98
2019-04-06T19:16:28.743Z,14.92
2019-04-06T19:18:57.290Z,14.84
2019-04-06T19:21:25.753Z,14.77
2019-04-06T19:23:54.226Z,14.69
2019-04-06T19:26:23.098Z,14.61
2019-04-06T19:28:51.593Z,14.53
2019-04-06T19:31:20.476Z,14.44
2019-04-06T19:33:49.037Z,14.37
2019-04-06T19:36:18.072Z,14.26
2019-04-06T19:38:46.550Z,14.16
2019-04-06T19:41:15.078Z,14.06
2019-04-06T19:43:43.524Z,13.94
2019-04-06T19:46:12.346Z,13.80
2019-04-06T19:48:41.267Z,13.68
2019-04-06T19:51:10.369Z,13.58
2019-04-06T19:53:39.081Z,13.46
2019-04-06T19:56:07.739Z,13.36
2019-04-06T19:58:36.232Z,13.30
2019-04-06T20:01:04.786Z,13.23
2019-04-06T20:03:36.013Z,13.16
2019-04-06T20:06:03.948Z,13.08
2019-04-06T20:08:32.899Z,13.02
2019-04-06T20:11:01.994Z,12.93
2019-04-06T20:13:30.471Z,12.88
2019-04-06T20:15:58.936Z,12.82
2019-04-06T20:18:27.812Z,12.76
2019-04-06T20:20:56.395Z,12.71
2019-04-06T20:23:25.311Z,12.68
2019-04-06T20:25:54.463Z,12.65
2019-04-06T20:28:23.350Z,12.62
2019-04-06T20:30:52.183Z,12.59
2019-04-06T20:33:20.754Z,12.57
2019-04-06T20:35:49.392Z,12.52
2019-04-06T20:38:17.976Z,12.49
2019-04-06T20:40:47.072Z,12.46
2019-04-06T20:43:15.789Z,12.43
2019-04-06T20:45:44.329Z,12.39
2019-04-06T20:48:13.026Z,12.37
2019-04-06T20:50:42.057Z,12.33
2019-04-06T20:53:10.530Z,12.30
2019-04-06T20:55:39.064Z,12.27
2019-04-06T20:58:07.546Z,12.22
2019-04-06T21:00:38.088Z,12.17
2019-04-06T21:03:06.589Z,12.09
2019-04-06T21:05:35.084Z,12.04
2019-04-06T21:08:03.563Z,11.99
2019-04-06T21:10:32.657Z,11.92
2019-04-06T21:13:01.230Z,11.86
2019-04-06T21:15:29.702Z,11.78
2019-04-06T21:17:58.712Z,11.71
2019-04-06T21:20:27.638Z,11.65
2019-04-06T21:22:56.324Z,11.58
2019-04-06T21:25:24.820Z,11.51
2019-04-06T21:27:53.481Z,11.43
2019-04-06T21:30:22.454Z,11.39
2019-04-06T21:32:51.462Z,11.34
2019-04-06T21:35:20.022Z,11.30
2019-04-06T21:37:48.485Z,11.25
2019-04-06T21:40:17.054Z,11.20
2019-04-06T21:42:45.985Z,11.16
2019-04-06T21:45:15.264Z,11.12
2019-04-06T21:47:44.212Z,10.92
2019-04-06T21:50:12.933Z,11.03
2019-04-06T21:52:41.400Z,11.00
2019-04-06T21:55:12.693Z,10.97
2019-04-06T21:57:41.157Z,10.94
2019-04-06T22:00:11.149Z,10.91
2019-04-06T22:02:40.186Z,10.88
2019-04-06T22:05:09.532Z,10.84
2019-04-06T22:07:47.208Z,10.78
2019-04-06T22:10:08.402Z,10.72
2019-04-06T22:12:37.959Z,10.67
2019-04-06T22:15:07.811Z,10.62
2019-04-06T22:17:36.302Z,10.58
2019-04-06T22:20:06.143Z,10.54
2019-04-06T22:22:35.323Z,10.47
2019-04-06T22:25:04.534Z,10.43
2019-04-06T22:27:33.314Z,10.36
2019-04-06T22:30:01.982Z,10.30
2019-04-06T22:32:30.609Z,10.26
2019-04-06T22:34:59.531Z,10.22
2019-04-06T22:37:28.049Z,10.17
2019-04-06T22:39:56.948Z,10.12
2019-04-06T22:42:26.100Z,10.09
2019-04-06T22:44:55.958Z,10.05
2019-04-06T22:47:24.572Z,10.00
2019-04-06T22:49:53.655Z,9.95
2019-04-06T22:52:22.309Z,9.88
2019-04-06T22:54:51.390Z,9.83
2019-04-06T22:57:20.328Z,9.75
2019-04-06T22:59:49.428Z,9.67
2019-04-06T23:02:17.882Z,9.56
2019-04-06T23:04:50.973Z,9.48
2019-04-06T23:07:20.127Z,9.40
2019-04-06T23:09:48.573Z,9.33
2019-04-06T23:12:17.041Z,9.25
2019-04-06T23:14:45.651Z,9.20
2019-04-06T23:17:14.682Z,9.18
2019-04-06T23:19:43.198Z,9.14
2019-04-06T23:22:11.687Z,9.12
2019-04-06T23:24:40.159Z,9.10
2019-04-06T23:27:08.625Z,9.06
2019-04-06T23:29:37.204Z,9.03
2019-04-06T23:32:05.732Z,9.02
2019-04-06T23:34:34.209Z,9.00
2019-04-06T23:37:02.707Z,8.97
2019-04-06T23:39:31.168Z,8.95
2019-04-06T23:42:00.147Z,8.91
2019-04-06T23:44:28.626Z,8.87
2019-04-06T23:46:57.625Z,8.83
2019-04-06T23:49:26.133Z,8.79
2019-04-06T23:51:54.642Z,8.76
2019-04-06T23:54:23.104Z,8.73
2019-04-06T23:56:51.565Z,8.73
2019-04-06T23:59:20.941Z,8.69
